Time;durP1;ratioP1;P1;durP2;ratioP2;P2;SDS_P1;SDS_P2;PMS_P1;PMS_P2;Temp;Humidity;BMP_temperature;BMP_pressure;BME280_temperature;BME280_humidity;BME280_pressure;Samples;Min_cycle;Max_cycle;Signal;HPM_P1;HPM_P2
2022/07/12 00:02:41;;;;;;;1.40;1.30;;;;;204.60;224519.00;;;;5068074;28;20237;-62
2022/07/12 00:05:28;;;;;;;1.50;1.40;;;;;204.60;224519.00;;;;5066836;28;20235;-63
2022/07/12 00:08:14;;;;;;;1.80;1.70;;;;;204.60;224519.00;;;;5055344;28;20276;-63
2022/07/12 00:11:01;;;;;;;1.53;1.43;;;;;204.60;224519.00;;;;5064595;28;20301;-63
2022/07/12 00:13:47;;;;;;;1.70;1.60;;;;;204.60;224519.00;;;;5064153;28;20235;-62
2022/07/12 00:16:35;;;;;;;3.33;1.50;;;;;204.60;224519.00;;;;5061332;28;20656;-64
2022/07/12 00:19:21;;;;;;;1.80;1.70;;;;;204.60;224519.00;;;;5063981;28;20299;-65
2022/07/12 00:22:07;;;;;;;1.87;1.50;;;;;204.60;224519.00;;;;5066953;28;20609;-63
2022/07/12 00:24:54;;;;;;;1.30;1.20;;;;;204.60;224519.00;;;;5060272;28;20237;-63
2022/07/12 00:27:40;;;;;;;1.57;1.47;;;;;204.60;224519.00;;;;5065620;28;20255;-63
2022/07/12 00:30:27;;;;;;;1.73;1.63;;;;;204.60;224519.00;;;;5063106;28;20297;-64
2022/07/12 00:33:15;;;;;;;1.60;1.50;;;;;204.60;224519.00;;;;5066596;28;20232;-62
2022/07/12 00:36:01;;;;;;;1.60;1.50;;;;;204.60;224519.00;;;;5062362;28;20302;-63
2022/07/12 00:38:47;;;;;;;1.67;1.57;;;;;204.60;224519.00;;;;5066748;28;20228;-64
2022/07/12 00:41:34;;;;;;;1.70;1.60;;;;;204.60;224519.00;;;;5066190;28;20598;-65
2022/07/12 00:44:20;;;;;;;1.70;1.60;;;;;204.60;224519.00;;;;5062337;28;20318;-64
2022/07/12 00:47:06;;;;;;;1.70;1.60;;;;;204.60;224519.00;;;;5062181;28;20302;-66
2022/07/12 00:49:54;;;;;;;2.13;1.90;;;;;204.60;224519.00;;;;5066749;28;20731;-63
2022/07/12 00:52:42;;;;;;;1.80;1.70;;;;;204.60;224519.00;;;;5064676;28;20236;-64
2022/07/12 00:55:28;;;;;;;1.73;1.63;;;;;204.60;224519.00;;;;5055800;28;20606;-64
2022/07/12 00:58:15;;;;;;;2.17;1.97;;;;;204.60;224519.00;;;;5056862;28;20219;-62
2022/07/12 01:01:01;;;;;;;1.90;1.80;;;;;204.60;224519.00;;;;5066631;28;20318;-63
2022/07/12 01:03:47;;;;;;;1.80;1.70;;;;;204.60;224519.00;;;;5060045;28;20326;-64
2022/07/12 01:06:36;;;;;;;1.80;1.70;;;;;204.60;224519.00;;;;5057479;28;20295;-64
2022/07/12 01:09:23;;;;;;;2.57;1.73;;;;;204.60;224519.00;;;;5063658;28;20800;-63
2022/07/12 01:12:10;;;;;;;1.90;1.70;;;;;204.60;224519.00;;;;5067765;28;20787;-63
2022/07/12 01:14:57;;;;;;;2.13;1.70;;;;;204.60;224519.00;;;;5063369;28;20242;-64
2022/07/12 01:17:45;;;;;;;1.80;1.70;;;;;204.60;224519.00;;;;5064585;28;20231;-63
2022/07/12 01:20:37;;;;;;;2.53;2.00;;;;;204.60;224519.00;;;;5066328;28;20735;-64
2022/07/12 01:23:26;;;;;;;2.10;1.90;;;;;204.60;224519.00;;;;5060384;28;20325;-63
2022/07/12 01:26:12;;;;;;;1.83;1.70;;;;;204.60;224519.00;;;;5061692;28;20235;-64
2022/07/12 01:29:00;;;;;;;1.70;1.60;;;;;204.60;224519.00;;;;5066637;28;20227;-65
2022/07/12 01:31:46;;;;;;;1.90;1.80;;;;;204.60;224519.00;;;;5063550;28;20708;-64
2022/07/12 01:34:33;;;;;;;1.80;1.70;;;;;204.60;224519.00;;;;5067336;28;20260;-63
2022/07/12 01:37:21;;;;;;;1.87;1.73;;;;;204.60;224519.00;;;;5052393;28;20310;-64
2022/07/12 01:40:10;;;;;;;2.00;1.80;;;;;204.60;224519.00;;;;5063591;28;20228;-64
2022/07/12 01:42:57;;;;;;;1.80;1.70;;;;;204.60;224519.00;;;;5062363;28;20243;-62
2022/07/12 01:45:44;;;;;;;2.17;1.90;;;;;204.60;224519.00;;;;5065082;28;20386;-64
2022/07/12 01:48:30;;;;;;;1.70;1.60;;;;;204.60;224519.00;;;;5065347;28;20227;-64
2022/07/12 01:51:17;;;;;;;2.00;1.90;;;;;204.60;224519.00;;;;5058924;28;20727;-65
2022/07/12 01:54:03;;;;;;;1.80;1.70;;;;;204.60;224519.00;;;;5060177;28;20270;-64
2022/07/12 01:56:51;;;;;;;2.00;1.80;;;;;204.60;224519.00;;;;5064059;28;20736;-63
2022/07/12 01:59:40;;;;;;;5.70;1.60;;;;;204.60;224519.00;;;;5060601;28;20232;-64
2022/07/12 02:02:26;;;;;;;1.70;1.60;;;;;204.60;224519.00;;;;5052573;28;20252;-64
2022/07/12 02:05:13;;;;;;;1.83;1.73;;;;;204.60;224519.00;;;;5060022;28;20236;-65
2022/07/12 02:08:00;;;;;;;1.60;1.50;;;;;204.60;224519.00;;;;5064149;28;20862;-63
2022/07/12 02:10:46;;;;;;;2.27;1.70;;;;;204.60;224519.00;;;;5056926;28;20227;-64
2022/07/12 02:13:33;;;;;;;1.90;1.80;;;;;204.60;224519.00;;;;5062012;28;20252;-64
2022/07/12 02:16:20;;;;;;;1.73;1.63;;;;;204.60;224519.00;;;;5051990;28;20251;-64
2022/07/12 02:19:06;;;;;;;1.87;1.67;;;;;204.60;224519.00;;;;5063022;28;20675;-63
2022/07/12 02:21:53;;;;;;;3.10;1.70;;;;;204.60;224519.00;;;;5057295;28;20228;-62
2022/07/12 02:24:39;;;;;;;1.97;1.87;;;;;204.60;224519.00;;;;5058314;28;20256;-63
2022/07/12 02:27:25;;;;;;;1.70;1.60;;;;;204.60;224519.00;;;;5056173;28;20318;-64
2022/07/12 02:30:13;;;;;;;2.20;2.00;;;;;204.60;224519.00;;;;5057688;28;20301;-62
2022/07/12 02:33:00;;;;;;;1.80;1.70;;;;;204.60;224519.00;;;;5063193;28;20235;-64
2022/07/12 02:35:46;;;;;;;1.97;1.83;;;;;204.60;224519.00;;;;5063394;28;20274;-64
2022/07/12 02:38:33;;;;;;;1.90;1.80;;;;;204.60;224519.00;;;;5063451;28;20231;-63
2022/07/12 02:41:19;;;;;;;1.87;1.77;;;;;204.60;224519.00;;;;5059009;28;20235;-63
2022/07/12 02:44:05;;;;;;;1.93;1.77;;;;;204.60;224519.00;;;;5064832;28;21413;-64
2022/07/12 02:46:53;;;;;;;2.10;1.90;;;;;204.60;224519.00;;;;5065248;28;20239;-64
2022/07/12 02:49:40;;;;;;;2.30;2.10;;;;;204.60;224519.00;;;;5065945;28;20604;-63
2022/07/12 02:52:26;;;;;;;2.00;1.80;;;;;204.60;224519.00;;;;5059644;28;20247;-63
2022/07/12 02:55:12;;;;;;;1.80;1.70;;;;;204.60;224519.00;;;;5062901;28;20232;-63
2022/07/12 02:57:58;;;;;;;1.83;1.73;;;;;204.60;224519.00;;;;5061410;28;20237;-63
2022/07/12 03:00:45;;;;;;;2.43;1.70;;;;;204.60;224519.00;;;;5059400;28;20228;-62
2022/07/12 03:03:33;;;;;;;2.30;2.00;;;;;204.60;224519.00;;;;5067847;28;20231;-65
2022/07/12 03:06:19;;;;;;;1.97;1.87;;;;;204.60;224519.00;;;;5060551;28;20235;-64
2022/07/12 03:09:05;;;;;;;2.07;1.87;;;;;204.60;224519.00;;;;5065740;28;20230;-64
2022/07/12 03:11:51;;;;;;;2.00;1.73;;;;;204.60;224519.00;;;;5062969;28;20297;-63
2022/07/12 03:14:37;;;;;;;2.07;1.97;;;;;204.60;224519.00;;;;5067743;28;20269;-63
2022/07/12 03:17:24;;;;;;;2.20;2.00;;;;;204.60;224519.00;;;;5069645;28;20232;-65
2022/07/12 03:20:14;;;;;;;2.20;2.00;;;;;204.60;224519.00;;;;5067841;28;20768;-65
2022/07/12 03:23:00;;;;;;;1.67;1.57;;;;;204.60;224519.00;;;;5068359;28;20239;-64
2022/07/12 03:25:46;;;;;;;3.07;2.07;;;;;204.60;224519.00;;;;5065508;28;20391;-64
2022/07/12 03:28:32;;;;;;;2.10;1.90;;;;;204.60;224519.00;;;;5065949;28;20289;-62
2022/07/12 03:31:19;;;;;;;1.97;1.80;;;;;204.60;224519.00;;;;5063289;28;20313;-64
2022/07/12 03:34:05;;;;;;;1.77;1.67;;;;;204.60;224519.00;;;;5061395;28;20239;-62
2022/07/12 03:36:53;;;;;;;2.17;1.97;;;;;204.60;224519.00;;;;5068270;28;20596;-63
2022/07/12 03:39:39;;;;;;;2.37;2.13;;;;;204.60;224519.00;;;;5067612;28;20770;-63
2022/07/12 03:42:26;;;;;;;2.40;2.20;;;;;204.60;224519.00;;;;5060799;28;20253;-63
2022/07/12 03:45:13;;;;;;;2.40;2.20;;;;;204.60;224519.00;;;;5067572;28;20231;-65
2022/07/12 03:47:59;;;;;;;2.90;2.27;;;;;204.60;224519.00;;;;5067017;28;20302;-65
2022/07/12 03:50:46;;;;;;;3.23;1.97;;;;;204.60;224519.00;;;;5066390;28;20641;-65
2022/07/12 03:53:34;;;;;;;2.50;2.20;;;;;204.60;224519.00;;;;5063355;28;20266;-64
2022/07/12 03:59:20;;;;;;;2.30;2.03;;;;;204.60;224519.00;;;;5058865;28;20216;-62
2022/07/12 04:02:07;;;;;;;2.30;2.00;;;;;204.60;224519.00;;;;5067263;28;20251;-63
2022/07/12 04:04:53;;;;;;;2.20;1.77;;;;;204.60;224519.00;;;;5064951;28;20748;-64
2022/07/12 04:07:40;;;;;;;3.20;2.20;;;;;204.60;224519.00;;;;5066141;28;20227;-65
2022/07/12 04:10:28;;;;;;;2.17;1.97;;;;;204.60;224519.00;;;;5055970;28;20223;-64
2022/07/12 04:13:14;;;;;;;3.23;2.20;;;;;204.60;224519.00;;;;5062491;28;20715;-63
2022/07/12 04:16:01;;;;;;;2.40;2.20;;;;;204.60;224519.00;;;;5063635;28;20248;-63
2022/07/12 04:18:47;;;;;;;3.00;2.10;;;;;204.60;224519.00;;;;5058468;28;20713;-64
2022/07/12 04:21:34;;;;;;;2.60;2.23;;;;;204.60;224519.00;;;;5061906;28;20765;-65
2022/07/12 04:24:20;;;;;;;4.20;2.63;;;;;204.60;224519.00;;;;5052112;28;20236;-64
2022/07/12 04:27:08;;;;;;;2.70;2.27;;;;;204.60;224519.00;;;;5066041;28;20243;-64
2022/07/12 04:29:55;;;;;;;2.50;2.30;;;;;204.60;224519.00;;;;5060998;28;20724;-64
2022/07/12 04:32:47;;;;;;;2.40;2.20;;;;;204.60;224519.00;;;;5066971;28;20713;-64
2022/07/12 04:35:35;;;;;;;2.43;2.20;;;;;204.60;224519.00;;;;5062741;28;20732;-65
2022/07/12 04:38:21;;;;;;;2.60;2.40;;;;;204.60;224519.00;;;;5060715;28;20224;-63
2022/07/12 04:41:07;;;;;;;2.77;2.30;;;;;204.60;224519.00;;;;5064104;28;20227;-64
2022/07/12 04:43:55;;;;;;;2.43;2.23;;;;;204.60;224519.00;;;;5056756;28;20268;-64
2022/07/12 04:46:41;;;;;;;3.23;2.70;;;;;204.60;224519.00;;;;5066007;28;20301;-65
2022/07/12 04:49:28;;;;;;;2.37;2.17;;;;;204.60;224519.00;;;;5067440;28;20294;-63
2022/07/12 04:52:14;;;;;;;3.43;2.20;;;;;204.60;224519.00;;;;5059159;28;20278;-64
2022/07/12 04:55:00;;;;;;;3.00;2.70;;;;;204.60;224519.00;;;;5064428;28;20235;-64
2022/07/12 04:57:46;;;;;;;2.77;2.47;;;;;204.60;224519.00;;;;5057471;28;20232;-64
2022/07/12 05:00:34;;;;;;;2.97;2.50;;;;;204.60;224519.00;;;;5061807;28;20232;-64
2022/07/12 05:03:20;;;;;;;3.27;2.97;;;;;204.60;224519.00;;;;5058707;28;20706;-64
2022/07/12 05:06:06;;;;;;;3.63;3.20;;;;;204.60;224519.00;;;;5056366;28;20261;-63
2022/07/12 05:08:53;;;;;;;5.10;3.97;;;;;204.60;224519.00;;;;5065931;28;20223;-64
2022/07/12 05:11:39;;;;;;;5.50;4.60;;;;;204.60;224519.00;;;;5060597;28;20227;-63
2022/07/12 05:14:26;;;;;;;8.30;4.63;;;;;204.60;224519.00;;;;5058943;28;20596;-64
2022/07/12 05:17:13;;;;;;;9.47;5.40;;;;;204.60;224519.00;;;;5064987;28;20234;-63
2022/07/12 05:19:59;;;;;;;5.57;4.33;;;;;204.60;224519.00;;;;5060434;28;20291;-64
2022/07/12 05:22:46;;;;;;;6.93;5.20;;;;;204.60;224519.00;;;;5053960;28;20226;-64
2022/07/12 05:25:32;;;;;;;7.10;5.00;;;;;204.60;224519.00;;;;5059430;28;20275;-63
2022/07/12 05:28:18;;;;;;;6.53;5.00;;;;;204.60;224519.00;;;;5054825;28;20274;-64
2022/07/12 05:31:04;;;;;;;6.20;5.13;;;;;204.60;224519.00;;;;5054063;28;20802;-64
2022/07/12 05:33:52;;;;;;;7.87;4.73;;;;;204.60;224519.00;;;;5049865;28;20317;-65
2022/07/12 05:36:38;;;;;;;6.10;4.70;;;;;204.60;224519.00;;;;5061700;28;20736;-62
2022/07/12 05:39:25;;;;;;;6.53;4.83;;;;;204.60;224519.00;;;;5061023;28;20229;-64
2022/07/12 05:42:12;;;;;;;6.67;4.87;;;;;204.60;224519.00;;;;5062907;28;20226;-64
2022/07/12 05:44:58;;;;;;;7.20;5.07;;;;;204.60;224519.00;;;;5059897;28;20351;-64
2022/07/12 05:47:45;;;;;;;9.40;5.97;;;;;204.60;224519.00;;;;5060718;28;20245;-63
2022/07/12 05:50:32;;;;;;;6.87;5.43;;;;;204.60;224519.00;;;;5057407;28;20598;-64
2022/07/12 05:53:23;;;;;;;7.60;4.33;;;;;204.60;224519.00;;;;5054319;28;20242;-64
2022/07/12 05:56:09;;;;;;;9.80;5.07;;;;;204.60;224519.00;;;;5053576;28;20237;-64
2022/07/12 05:58:56;;;;;;;6.67;5.00;;;;;204.60;224519.00;;;;5051416;28;20281;-64
2022/07/12 06:01:42;;;;;;;6.63;4.87;;;;;204.60;224519.00;;;;5050953;28;20645;-64
2022/07/12 06:04:29;;;;;;;6.70;4.83;;;;;204.60;224519.00;;;;5058801;28;20238;-64
2022/07/12 06:07:17;;;;;;;9.60;5.90;;;;;204.60;224519.00;;;;5065040;28;20247;-64
2022/07/12 06:10:04;;;;;;;6.40;4.83;;;;;204.60;224519.00;;;;5063357;28;20232;-63
2022/07/12 06:12:50;;;;;;;6.90;4.53;;;;;204.60;224519.00;;;;5061082;28;20260;-64
2022/07/12 06:15:37;;;;;;;6.60;4.93;;;;;204.60;224519.00;;;;5060576;28;20447;-63
2022/07/12 06:18:23;;;;;;;8.00;5.20;;;;;204.60;224519.00;;;;5064641;28;20599;-63
2022/07/12 06:21:10;;;;;;;10.03;5.63;;;;;204.60;224519.00;;;;5063165;28;20991;-64
2022/07/12 06:23:58;;;;;;;7.33;5.13;;;;;204.60;224519.00;;;;5053410;28;20239;-65
2022/07/12 06:26:44;;;;;;;7.37;5.30;;;;;204.60;224519.00;;;;5061273;28;20247;-64
2022/07/12 06:29:31;;;;;;;7.40;5.20;;;;;204.60;224519.00;;;;5066368;28;20269;-63
2022/07/12 06:32:17;;;;;;;6.53;5.20;;;;;204.60;224519.00;;;;5063253;28;20236;-64
2022/07/12 06:35:04;;;;;;;8.50;5.37;;;;;204.60;224519.00;;;;5063829;28;20741;-63
2022/07/12 06:37:52;;;;;;;7.43;5.50;;;;;204.60;224519.00;;;;5063164;28;20665;-63
2022/07/12 06:40:40;;;;;;;9.37;5.73;;;;;204.60;224519.00;;;;5058277;28;20809;-64
2022/07/12 06:43:27;;;;;;;8.67;5.70;;;;;204.60;224519.00;;;;5063539;28;20293;-64
2022/07/12 06:46:13;;;;;;;8.67;5.67;;;;;204.60;224519.00;;;;5063666;28;20228;-64
2022/07/12 06:48:59;;;;;;;7.33;5.20;;;;;204.60;224519.00;;;;5065010;28;20297;-64
2022/07/12 06:51:46;;;;;;;6.20;5.27;;;;;204.60;224519.00;;;;5065893;28;20378;-64
2022/07/12 06:54:32;;;;;;;6.03;4.63;;;;;204.60;224519.00;;;;5065540;28;20223;-64
2022/07/12 06:57:20;;;;;;;7.53;4.83;;;;;204.60;224519.00;;;;5063881;28;20362;-65
2022/07/12 07:00:08;;;;;;;7.73;4.50;;;;;204.60;224519.00;;;;5064130;28;20248;-64
2022/07/12 07:02:54;;;;;;;6.00;4.20;;;;;204.60;224519.00;;;;5062541;28;20259;-64
2022/07/12 07:05:41;;;;;;;8.60;4.27;;;;;204.60;224519.00;;;;5059141;28;20601;-64
2022/07/12 07:08:28;;;;;;;6.07;4.60;;;;;204.60;224519.00;;;;5057487;28;20254;-64
2022/07/12 07:11:14;;;;;;;5.50;4.33;;;;;204.60;224519.00;;;;5062979;28;20767;-64
2022/07/12 07:14:02;;;;;;;5.13;4.00;;;;;204.60;224519.00;;;;5061524;28;20232;-64
2022/07/12 07:16:48;;;;;;;5.00;4.13;;;;;204.60;224519.00;;;;5056115;28;20228;-64
2022/07/12 07:19:37;;;;;;;5.13;4.20;;;;;204.60;224519.00;;;;5059557;28;20725;-63
2022/07/12 07:22:23;;;;;;;8.50;5.47;;;;;204.60;224519.00;;;;5064384;28;20239;-64
2022/07/12 07:25:10;;;;;;;17.77;10.73;;;;;204.60;224519.00;;;;5054651;28;20228;-64
2022/07/12 07:27:56;;;;;;;6.37;4.57;;;;;204.60;224519.00;;;;5060377;28;20239;-65
2022/07/12 07:30:52;;;;;;;4.80;3.70;;;;;204.60;224519.00;;;;5058341;28;20227;-65
2022/07/12 07:33:38;;;;;;;4.60;3.83;;;;;204.60;224519.00;;;;5059751;28;20228;-64
2022/07/12 07:36:24;;;;;;;4.33;3.70;;;;;204.60;224519.00;;;;5060744;28;20282;-63
2022/07/12 07:39:12;;;;;;;4.40;3.47;;;;;204.60;224519.00;;;;5055898;28;20231;-63
2022/07/12 07:42:06;;;;;;;3.80;3.20;;;;;204.60;224519.00;;;;5066090;28;20491;-62
2022/07/12 07:44:52;;;;;;;4.60;3.50;;;;;204.60;224519.00;;;;5060554;28;20231;-64
2022/07/12 07:48:00;;;;;;;3.73;3.33;;;;;204.60;224519.00;;;;5065111;28;20244;-63
2022/07/12 07:51:06;;;;;;;3.43;3.00;;;;;204.60;224519.00;;;;5059572;28;20350;-63
2022/07/12 07:53:53;;;;;;;2.93;2.43;;;;;204.60;224519.00;;;;5065553;28;20362;-65
2022/07/12 07:56:39;;;;;;;2.90;2.50;;;;;204.60;224519.00;;;;5057325;28;20378;-63
2022/07/12 07:59:25;;;;;;;3.40;3.10;;;;;204.60;224519.00;;;;5060247;28;20224;-64
2022/07/12 08:02:12;;;;;;;2.80;2.60;;;;;204.60;224519.00;;;;5066533;28;20223;-63
2022/07/12 08:04:59;;;;;;;3.03;2.37;;;;;204.60;224519.00;;;;5066774;28;20251;-64
2022/07/12 08:07:45;;;;;;;2.10;1.90;;;;;204.60;224519.00;;;;5058482;28;20725;-63
2022/07/12 08:10:41;;;;;;;3.70;2.80;;;;;204.60;224519.00;;;;5062313;28;20244;-64
2022/07/12 08:13:28;;;;;;;2.30;2.00;;;;;204.60;224519.00;;;;5066586;28;20267;-63
2022/07/12 08:16:14;;;;;;;3.20;2.90;;;;;204.60;224519.00;;;;5059551;28;21114;-64
2022/07/12 08:19:00;;;;;;;2.90;2.30;;;;;204.60;224519.00;;;;5066226;28;20231;-64
2022/07/12 08:21:48;;;;;;;2.30;2.10;;;;;204.60;224519.00;;;;5044209;28;20283;-64
2022/07/12 08:24:35;;;;;;;2.67;2.20;;;;;204.60;224519.00;;;;5062781;28;20239;-64
2022/07/12 08:27:21;;;;;;;3.83;2.80;;;;;204.60;224519.00;;;;5055789;28;20232;-63
2022/07/12 08:30:08;;;;;;;3.90;3.03;;;;;204.60;224519.00;;;;5062614;28;20335;-64
2022/07/12 08:32:55;;;;;;;2.53;2.20;;;;;204.60;224519.00;;;;5064029;28;20236;-64
2022/07/12 08:35:42;;;;;;;3.50;2.23;;;;;204.60;224519.00;;;;5059277;28;20287;-63
2022/07/12 08:38:31;;;;;;;1.90;1.80;;;;;204.60;224519.00;;;;5056079;28;21976;-63
2022/07/12 08:41:17;;;;;;;2.63;2.10;;;;;204.60;224519.00;;;;5065310;28;20604;-64
2022/07/12 08:44:04;;;;;;;1.80;1.70;;;;;204.60;224519.00;;;;5060057;28;20879;-64
2022/07/12 08:46:52;;;;;;;1.73;1.63;;;;;204.60;224519.00;;;;5063237;28;20244;-64
2022/07/12 08:49:38;;;;;;;1.77;1.67;;;;;204.60;224519.00;;;;5061021;28;20233;-63
2022/07/12 08:52:26;;;;;;;2.07;1.87;;;;;204.60;224519.00;;;;5058931;28;20232;-63
2022/07/12 08:55:23;;;;;;;1.90;1.70;;;;;204.60;224519.00;;;;5066760;28;20229;-65
2022/07/12 08:58:16;;;;;;;1.30;1.20;;;;;204.60;224519.00;;;;5067740;28;25566;-63
2022/07/12 09:01:02;;;;;;;1.80;1.70;;;;;204.60;224519.00;;;;5063451;28;20991;-64
2022/07/12 09:03:49;;;;;;;1.60;1.13;;;;;204.60;224519.00;;;;5062025;28;20293;-65
2022/07/12 09:06:35;;;;;;;1.20;1.10;;;;;204.60;224519.00;;;;5058499;28;20883;-64
2022/07/12 09:09:29;;;;;;;1.27;1.17;;;;;204.60;224519.00;;;;5063433;28;20236;-64
2022/07/12 09:12:24;;;;;;;1.30;1.20;;;;;204.60;224519.00;;;;5056770;28;20251;-64
2022/07/12 09:15:19;;;;;;;1.50;1.40;;;;;204.60;224519.00;;;;5064153;28;20624;-64
2022/07/12 09:18:12;;;;;;;1.43;1.33;;;;;204.60;224519.00;;;;5064987;28;20283;-62
2022/07/12 09:20:59;;;;;;;1.60;1.50;;;;;204.60;224519.00;;;;5059163;28;20342;-64
2022/07/12 09:23:52;;;;;;;1.60;1.40;;;;;204.60;224519.00;;;;5058006;28;20238;-63
2022/07/12 09:26:38;;;;;;;1.70;1.60;;;;;204.60;224519.00;;;;5057990;28;20245;-62
2022/07/12 09:29:26;;;;;;;1.50;1.40;;;;;204.60;224519.00;;;;5062592;28;20243;-64
2022/07/12 09:38:20;;;;;;;1.80;1.20;;;;;204.60;224519.00;;;;5062796;28;20240;-64
2022/07/12 09:41:07;;;;;;;15.40;8.03;;;;;204.60;224519.00;;;;5055686;28;20232;-64
2022/07/12 09:43:54;;;;;;;2.13;1.50;;;;;204.60;224519.00;;;;5062283;28;20339;-65
2022/07/12 09:46:44;;;;;;;1.30;1.20;;;;;204.60;224519.00;;;;5060115;28;20602;-64
2022/07/12 09:49:30;;;;;;;2.43;1.10;;;;;204.60;224519.00;;;;5064218;28;20367;-64
2022/07/12 09:52:24;;;;;;;2.77;1.57;;;;;204.60;224519.00;;;;5063704;28;20346;-64
2022/07/12 09:55:11;;;;;;;2.73;1.30;;;;;204.60;224519.00;;;;5064024;28;20298;-64
2022/07/12 09:58:01;;;;;;;1.80;1.47;;;;;204.60;224519.00;;;;5065491;28;20754;-65
2022/07/12 10:00:49;;;;;;;1.73;1.43;;;;;204.60;224519.00;;;;5063132;28;20240;-64
2022/07/12 10:03:40;;;;;;;1.30;1.10;;;;;204.60;224519.00;;;;5052169;28;20231;-65
2022/07/12 10:06:28;;;;;;;1.57;1.20;;;;;204.60;224519.00;;;;5060846;28;20279;-64
2022/07/12 10:09:21;;;;;;;1.10;1.10;;;;;204.60;224519.00;;;;5062374;28;20232;-66
2022/07/12 10:12:08;;;;;;;1.10;1.10;;;;;204.60;224519.00;;;;5062672;28;20278;-64
2022/07/12 10:15:01;;;;;;;1.50;1.40;;;;;204.60;224519.00;;;;5063576;28;20224;-64
2022/07/12 10:17:54;;;;;;;2.70;1.27;;;;;204.60;224519.00;;;;5059980;28;20838;-63
2022/07/12 10:20:44;;;;;;;2.20;1.50;;;;;204.60;224519.00;;;;5066544;28;20361;-64
2022/07/12 10:23:35;;;;;;;3.10;1.40;;;;;204.60;224519.00;;;;5056226;28;20649;-63
2022/07/12 10:26:26;;;;;;;3.20;1.10;;;;;204.60;224519.00;;;;5064885;28;20232;-64
2022/07/12 10:29:20;;;;;;;1.50;1.30;;;;;204.60;224519.00;;;;5064627;28;20231;-65
2022/07/12 10:32:21;;;;;;;1.70;1.13;;;;;204.60;224519.00;;;;5054912;28;20229;-64
2022/07/12 10:35:13;;;;;;;1.47;1.10;;;;;204.60;224519.00;;;;5057667;28;20289;-63
2022/07/12 10:38:18;;;;;;;1.00;1.00;;;;;204.60;224519.00;;;;5061212;28;20363;-65
2022/07/12 10:41:18;;;;;;;1.10;1.00;;;;;204.60;224519.00;;;;5060802;28;20358;-65
2022/07/12 10:44:05;;;;;;;1.30;1.20;;;;;204.60;224519.00;;;;5057874;28;20227;-65
2022/07/12 10:47:00;;;;;;;3.03;1.23;;;;;204.60;224519.00;;;;5059750;28;20250;-65
2022/07/12 10:49:50;;;;;;;0.90;0.90;;;;;204.60;224519.00;;;;5053902;28;20236;-64
2022/07/12 10:52:37;;;;;;;1.02;1.00;;;;;204.60;224519.00;;;;5063502;28;20232;-65
2022/07/12 10:55:24;;;;;;;1.13;1.10;;;;;204.60;224519.00;;;;5060662;28;20274;-65
2022/07/12 10:58:11;;;;;;;1.13;1.00;;;;;204.60;224519.00;;;;5065997;28;20259;-64
2022/07/12 11:00:58;;;;;;;1.30;1.17;;;;;204.60;224519.00;;;;5054689;28;20233;-65
2022/07/12 11:03:47;;;;;;;1.40;1.30;;;;;204.60;224519.00;;;;5058871;28;20231;-65
2022/07/12 11:06:36;;;;;;;1.50;1.40;;;;;204.60;224519.00;;;;5064477;28;20233;-64
2022/07/12 11:09:22;;;;;;;1.40;1.30;;;;;204.60;224519.00;;;;5063024;28;20232;-65
2022/07/12 11:12:10;;;;;;;1.40;1.30;;;;;204.60;224519.00;;;;5065460;28;20374;-64
2022/07/12 11:14:57;;;;;;;1.30;1.20;;;;;204.60;224519.00;;;;5068035;28;20224;-63
2022/07/12 11:17:43;;;;;;;1.75;1.60;;;;;204.60;224519.00;;;;5054493;28;20232;-63
2022/07/12 11:20:30;;;;;;;1.67;1.58;;;;;204.60;224519.00;;;;5066901;28;20720;-65
2022/07/12 11:23:16;;;;;;;1.80;1.40;;;;;204.60;224519.00;;;;5068168;28;20236;-64
2022/07/12 11:26:05;;;;;;;1.70;1.40;;;;;204.60;224519.00;;;;5061509;28;20236;-64
2022/07/12 11:28:58;;;;;;;1.38;1.27;;;;;204.60;224519.00;;;;5066211;28;20725;-64
2022/07/12 11:31:45;;;;;;;1.80;1.60;;;;;204.60;224519.00;;;;5054801;28;20228;-64
2022/07/12 11:34:32;;;;;;;1.38;1.27;;;;;204.60;224519.00;;;;5059804;28;20287;-63
2022/07/12 11:37:18;;;;;;;2.53;1.25;;;;;204.60;224519.00;;;;5064798;28;20231;-65
2022/07/12 11:40:06;;;;;;;1.50;1.40;;;;;204.60;224519.00;;;;5067965;28;20346;-64
2022/07/12 11:42:53;;;;;;;1.80;1.67;;;;;204.60;224519.00;;;;5065589;28;20294;-66
2022/07/12 11:45:42;;;;;;;2.97;1.73;;;;;204.60;224519.00;;;;5063870;28;21215;-66
2022/07/12 11:48:32;;;;;;;1.88;1.67;;;;;204.60;224519.00;;;;5064504;28;20367;-62
2022/07/12 11:51:18;;;;;;;3.45;1.38;;;;;204.60;224519.00;;;;5057547;28;20290;-65
2022/07/12 11:54:05;;;;;;;1.75;1.63;;;;;204.60;224519.00;;;;5065699;28;20378;-65
2022/07/12 11:57:05;;;;;;;2.00;1.73;;;;;204.60;224519.00;;;;5062688;28;20240;-65
2022/07/12 11:59:51;;;;;;;1.42;1.33;;;;;204.60;224519.00;;;;5058522;28;20720;-66
2022/07/12 12:02:39;;;;;;;1.88;1.67;;;;;204.60;224519.00;;;;5066210;28;20235;-65
2022/07/12 12:05:26;;;;;;;2.75;2.10;;;;;204.60;224519.00;;;;5068213;28;20232;-65
2022/07/12 12:08:14;;;;;;;4.07;1.90;;;;;204.60;224519.00;;;;5056519;28;20651;-65
2022/07/12 12:11:02;;;;;;;2.10;1.90;;;;;204.60;224519.00;;;;5063670;28;20415;-63
2022/07/12 12:13:56;;;;;;;2.05;1.88;;;;;204.60;224519.00;;;;5060719;28;20236;-65
2022/07/12 12:16:43;;;;;;;4.60;1.88;;;;;204.60;224519.00;;;;5057402;28;20228;-65
2022/07/12 12:19:31;;;;;;;2.45;2.10;;;;;204.60;224519.00;;;;5064363;28;20300;-65
2022/07/12 12:22:34;;;;;;;2.38;1.70;;;;;204.60;224519.00;;;;5063714;28;20231;-64
2022/07/12 12:25:21;;;;;;;2.45;2.00;;;;;204.60;224519.00;;;;5061846;28;20228;-65
2022/07/12 12:28:07;;;;;;;2.25;2.05;;;;;204.60;224519.00;;;;5063657;28;20224;-65
2022/07/12 12:31:00;;;;;;;8.60;5.93;;;;;204.60;224519.00;;;;5058957;28;20390;-65
2022/07/12 12:33:49;;;;;;;6.55;4.50;;;;;204.60;224519.00;;;;5057399;28;20306;-65
2022/07/12 12:36:38;;;;;;;2.75;2.40;;;;;204.60;224519.00;;;;5065280;28;20297;-63
2022/07/12 12:39:33;;;;;;;2.85;2.08;;;;;204.60;224519.00;;;;5065661;28;20235;-65
2022/07/12 12:42:25;;;;;;;3.83;2.00;;;;;204.60;224519.00;;;;5060492;28;20282;-65
2022/07/12 12:45:18;;;;;;;2.35;2.15;;;;;204.60;224519.00;;;;5061259;28;20710;-64
2022/07/12 12:48:06;;;;;;;1.92;1.80;;;;;204.60;224519.00;;;;5063337;28;20600;-63
2022/07/12 12:50:53;;;;;;;2.53;2.08;;;;;204.60;224519.00;;;;5067024;28;20248;-65
2022/07/12 12:53:41;;;;;;;5.25;1.83;;;;;204.60;224519.00;;;;5058827;28;20248;-66
2022/07/12 12:56:28;;;;;;;3.53;1.80;;;;;204.60;224519.00;;;;5065651;28;20266;-66
2022/07/12 12:59:15;;;;;;;3.33;1.88;;;;;204.60;224519.00;;;;5064600;28;20318;-65
2022/07/12 13:02:02;;;;;;;2.17;1.98;;;;;204.60;224519.00;;;;5062079;28;20583;-65
2022/07/12 13:04:49;;;;;;;2.55;1.85;;;;;204.60;224519.00;;;;5060833;28;20298;-66
2022/07/12 13:07:35;;;;;;;1.80;1.70;;;;;204.60;224519.00;;;;5058623;28;20294;-65
2022/07/12 13:10:23;;;;;;;1.88;1.77;;;;;204.60;224519.00;;;;5055709;28;20708;-65
2022/07/12 13:13:12;;;;;;;1.55;1.45;;;;;204.60;224519.00;;;;5056898;28;20237;-66
2022/07/12 13:16:05;;;;;;;2.00;1.20;;;;;204.60;224519.00;;;;5059748;28;20231;-66
2022/07/12 13:18:51;;;;;;;1.50;1.40;;;;;204.60;224519.00;;;;5053667;28;20239;-65
2022/07/12 13:21:37;;;;;;;2.97;1.42;;;;;204.60;224519.00;;;;5052120;28;20221;-67
2022/07/12 13:24:24;;;;;;;1.40;1.30;;;;;204.60;224519.00;;;;5063570;28;20235;-65
2022/07/12 13:27:11;;;;;;;1.45;1.30;;;;;204.60;224519.00;;;;5067124;28;20228;-64
2022/07/12 13:29:58;;;;;;;2.22;1.20;;;;;204.60;224519.00;;;;5061036;28;20383;-65
2022/07/12 13:32:44;;;;;;;1.17;1.15;;;;;204.60;224519.00;;;;5065974;28;20232;-66
2022/07/12 13:35:31;;;;;;;1.65;1.20;;;;;204.60;224519.00;;;;5061068;28;20229;-66
2022/07/12 13:38:17;;;;;;;1.38;1.25;;;;;204.60;224519.00;;;;5055679;28;20350;-64
2022/07/12 13:41:03;;;;;;;2.17;1.17;;;;;204.60;224519.00;;;;5061119;28;20231;-66
2022/07/12 13:43:51;;;;;;;1.92;1.50;;;;;204.60;224519.00;;;;5061191;28;20235;-65
2022/07/12 13:46:37;;;;;;;1.20;1.10;;;;;204.60;224519.00;;;;5065830;28;20232;-64
2022/07/12 13:49:23;;;;;;;2.28;1.30;;;;;204.60;224519.00;;;;5064376;28;20235;-66